createdAt,value
2018-11-22T12:16:14.526Z,7.10
2018-11-22T12:18:43.362Z,7.20
2018-11-22T12:21:11.505Z,7.40
2018-11-22T12:23:39.708Z,7.40
2018-11-22T12:26:07.894Z,7.40
2018-11-22T12:28:36.039Z,7.60
2018-11-22T12:31:06.624Z,7.70
2018-11-22T12:33:38.858Z,7.80
2018-11-22T12:36:12.535Z,7.90
2018-11-22T12:38:40.635Z,7.90
2018-11-22T12:41:08.799Z,8.00
2018-11-22T12:43:36.970Z,8.10
2018-11-22T12:46:05.574Z,8.10
2018-11-22T12:48:33.867Z,8.10
2018-11-22T12:51:02.111Z,8.10
2018-11-22T12:53:30.326Z,8.20
2018-11-22T12:55:58.473Z,8.20
2018-11-22T12:58:27.366Z,8.10
2018-11-22T13:00:55.950Z,8.10
2018-11-22T13:03:24.139Z,8.20
2018-11-22T13:05:52.284Z,8.30
2018-11-22T13:08:20.487Z,8.50
2018-11-22T13:10:48.743Z,8.60
2018-11-22T13:13:16.942Z,8.80
2018-11-22T13:15:45.171Z,8.90
2018-11-22T13:18:13.370Z,9.10
2018-11-22T13:20:41.534Z,9.50
2018-11-22T13:23:09.734Z,10.00
2018-11-22T13:25:37.914Z,10.40
2018-11-22T13:28:06.151Z,11.00
2018-11-22T13:30:34.314Z,11.50
2018-11-22T13:33:02.497Z,11.90
2018-11-22T13:35:30.680Z,12.20
2018-11-22T13:37:58.877Z,12.00
2018-11-22T13:40:27.050Z,11.40
2018-11-22T13:42:55.723Z,10.60
2018-11-22T13:45:25.322Z,10.20
2018-11-22T13:47:54.416Z,9.90
2018-11-22T13:50:25.150Z,9.60
2018-11-22T13:52:54.844Z,9.40
2018-11-22T13:55:23.071Z,9.30
2018-11-22T13:57:51.303Z,9.10
2018-11-22T14:00:26.438Z,8.90
2018-11-22T14:02:56.150Z,8.80
2018-11-22T14:05:24.299Z,8.70
2018-11-22T14:07:52.508Z,8.60
2018-11-22T14:10:21.273Z,8.50
2018-11-22T14:12:49.650Z,8.50
2018-11-22T14:15:19.151Z,8.50
2018-11-22T14:17:47.939Z,8.40
2018-11-22T14:20:18.634Z,8.30
2018-11-22T14:22:46.628Z,8.20
2018-11-22T14:25:15.546Z,8.20
2018-11-22T14:27:44.613Z,8.20
2018-11-22T14:30:14.358Z,8.10
2018-11-22T14:32:43.223Z,8.00
2018-11-22T14:35:12.534Z,8.00
2018-11-22T14:37:41.013Z,8.00
2018-11-22T14:40:13.686Z,8.00
2018-11-22T14:42:42.074Z,7.90
2018-11-22T14:45:11.382Z,7.80
2018-11-22T14:47:39.994Z,7.80
2018-11-22T14:50:11.405Z,7.70
2018-11-22T14:52:40.258Z,7.60
2018-11-22T14:55:08.917Z,7.60
2018-11-22T14:57:37.395Z,7.50
2018-11-22T15:00:09.156Z,7.50
2018-11-22T15:02:37.330Z,7.50
2018-11-22T15:05:06.115Z,7.40
2018-11-22T15:07:34.283Z,7.40
2018-11-22T15:10:02.450Z,7.30
2018-11-22T15:12:30.626Z,7.30
2018-11-22T15:14:58.786Z,7.20
2018-11-22T15:17:26.921Z,7.20
2018-11-22T15:19:55.126Z,7.10
2018-11-22T15:22:23.302Z,7.00
2018-11-22T15:24:51.443Z,7.00
2018-11-22T15:27:19.642Z,7.00
2018-11-22T15:29:47.845Z,7.00
2018-11-22T15:32:15.966Z,7.00
2018-11-22T15:34:44.142Z,6.90
2018-11-22T15:37:12.317Z,6.80
2018-11-22T15:39:40.491Z,6.70
2018-11-22T15:42:08.675Z,6.70
2018-11-22T15:44:36.821Z,6.60
2018-11-22T15:47:05.687Z,6.60
2018-11-22T15:49:33.849Z,6.50
2018-11-22T15:52:02.024Z,6.50
2018-11-22T15:54:30.213Z,6.50
2018-11-22T15:56:58.382Z,6.40
2018-11-22T15:59:26.573Z,6.40
2018-11-22T16:01:54.716Z,6.30
2018-11-22T16:04:22.951Z,6.30
2018-11-22T16:06:51.098Z,6.20
2018-11-22T16:09:19.350Z,6.20
2018-11-22T16:11:47.494Z,6.10
2018-11-22T16:14:15.674Z,6.10
2018-11-22T16:16:43.895Z,6.00
2018-11-22T16:19:12.059Z,6.00
2018-11-22T16:21:40.212Z,5.90
2018-11-22T16:24:09.472Z,5.90
2018-11-22T16:26:37.646Z,5.90
2018-11-22T16:29:05.982Z,5.80
2018-11-22T16:31:34.158Z,5.80
2018-11-22T16:34:02.330Z,5.70
2018-11-22T16:36:30.498Z,5.70
2018-11-22T16:38:58.661Z,5.70
2018-11-22T16:41:26.824Z,5.70
2018-11-22T16:43:54.995Z,5.70
2018-11-22T16:46:23.189Z,5.60
2018-11-22T16:48:51.386Z,5.60
2018-11-22T16:51:19.534Z,5.50
2018-11-22T16:53:47.718Z,5.50
2018-11-22T16:56:15.950Z,5.50
2018-11-22T16:58:44.123Z,5.40
2018-11-22T17:01:12.294Z,5.40
2018-11-22T17:03:40.470Z,5.40
2018-11-22T17:06:08.657Z,5.30
2018-11-22T17:08:36.870Z,5.30
2018-11-22T17:11:05.126Z,5.30
2018-11-22T17:13:33.312Z,5.20
2018-11-22T17:16:01.556Z,5.20
2018-11-22T17:18:29.754Z,5.20
2018-11-22T17:20:57.962Z,5.20
2018-11-22T17:23:26.134Z,5.20
2018-11-22T17:25:54.285Z,5.20
2018-11-22T17:28:22.468Z,5.20
2018-11-22T17:30:50.631Z,5.20
2018-11-22T17:33:18.815Z,5.20
2018-11-22T17:35:46.949Z,5.20
2018-11-22T17:38:15.192Z,5.10
2018-11-22T17:40:44.869Z,5.10
2018-11-22T17:43:13.018Z,5.10
2018-11-22T17:45:43.558Z,5.00
2018-11-22T17:48:11.850Z,5.00
2018-11-22T17:50:41.437Z,5.00
2018-11-22T17:53:10.238Z,5.00
2018-11-22T17:55:38.464Z,4.90
2018-11-22T17:58:06.665Z,4.90
2018-11-22T18:00:36.283Z,4.80
2018-11-22T18:03:05.280Z,4.80
2018-11-22T18:05:33.770Z,4.80
2018-11-22T18:08:01.941Z,4.80
2018-11-22T18:10:31.666Z,4.80
2018-11-22T18:13:00.408Z,4.70
2018-11-22T18:15:29.963Z,4.70
2018-11-22T18:17:58.397Z,4.70
2018-11-22T18:20:28.336Z,4.80
2018-11-22T18:22:58.008Z,4.70
2018-11-22T18:25:27.546Z,4.70
2018-11-22T18:27:56.110Z,4.70
2018-11-22T18:30:27.698Z,4.70
2018-11-22T18:32:57.378Z,4.70
2018-11-22T18:35:25.564Z,4.60
2018-11-22T18:37:53.747Z,4.60
2018-11-22T18:40:23.138Z,4.60
2018-11-22T18:42:52.426Z,4.50
2018-11-22T18:45:25.879Z,4.50
2018-11-22T18:47:54.406Z,4.50
2018-11-22T18:50:23.917Z,4.50
2018-11-22T18:52:52.164Z,4.50
2018-11-22T18:55:20.386Z,4.50
2018-11-22T18:57:49.305Z,4.40
2018-11-22T19:00:21.831Z,4.40
2018-11-22T19:02:50.263Z,4.40
2018-11-22T19:05:18.902Z,4.40
2018-11-22T19:07:48.181Z,4.40
2018-11-22T19:10:21.986Z,4.30
2018-11-22T19:12:51.018Z,4.20
2018-11-22T19:15:20.675Z,4.20
2018-11-22T19:17:49.170Z,4.20
2018-11-22T19:20:19.818Z,4.10
2018-11-22T19:22:48.840Z,4.10
2018-11-22T19:25:17.718Z,4.10
2018-11-22T19:27:46.062Z,4.00
2018-11-22T19:30:18.434Z,4.00
2018-11-22T19:32:47.750Z,4.00
2018-11-22T19:35:17.362Z,4.00
2018-11-22T19:37:46.071Z,4.00
2018-11-22T19:40:23.082Z,4.00
2018-11-22T19:42:52.627Z,3.90
2018-11-22T19:45:22.122Z,3.90
2018-11-22T19:47:50.523Z,3.80
2018-11-22T19:50:20.194Z,3.80
2018-11-22T19:52:49.110Z,3.80
2018-11-22T19:55:18.614Z,3.80
2018-11-22T19:57:48.240Z,3.70
2018-11-22T20:00:17.518Z,3.70
2018-11-22T20:02:46.202Z,3.80
2018-11-22T20:05:16.544Z,3.70
2018-11-22T20:07:45.826Z,3.70
2018-11-22T20:10:16.282Z,3.70
2018-11-22T20:12:44.634Z,3.70
2018-11-22T20:15:13.773Z,3.60
2018-11-22T20:17:42.918Z,3.60
2018-11-22T20:20:12.363Z,3.60
2018-11-22T20:22:40.986Z,3.50
2018-11-22T20:25:09.138Z,3.50
2018-11-22T20:27:37.857Z,3.50
2018-11-22T20:30:11.990Z,3.40
2018-11-22T20:32:40.470Z,3.50
2018-11-22T20:35:10.568Z,3.40
2018-11-22T20:37:38.747Z,3.40
2018-11-22T20:40:08.043Z,3.40
2018-11-22T20:42:36.307Z,3.50
2018-11-22T20:45:06.090Z,3.50
2018-11-22T20:47:35.549Z,3.40
2018-11-22T20:50:04.022Z,3.50
2018-11-22T20:52:33.518Z,3.40
2018-11-22T20:55:01.661Z,3.40
2018-11-22T20:57:29.811Z,3.40
2018-11-22T20:59:57.940Z,3.40
2018-11-22T21:02:26.511Z,3.30
2018-11-22T21:04:54.666Z,3.30
2018-11-22T21:07:22.866Z,3.30
2018-11-22T21:09:51.211Z,3.30
2018-11-22T21:12:19.373Z,3.20
2018-11-22T21:14:47.585Z,3.20
2018-11-22T21:17:15.762Z,3.20
2018-11-22T21:19:43.967Z,3.20
2018-11-22T21:22:12.571Z,3.20
2018-11-22T21:24:40.701Z,3.10
2018-11-22T21:27:12.573Z,3.10
2018-11-22T21:29:52.350Z,3.10
2018-11-22T21:32:20.732Z,3.10
2018-11-22T21:34:48.893Z,3.00
2018-11-22T21:37:17.079Z,3.10
2018-11-22T21:39:45.236Z,3.10
2018-11-22T21:42:13.650Z,3.00
2018-11-22T21:44:41.798Z,3.00
2018-11-22T21:47:10.152Z,3.00
2018-11-22T21:49:38.297Z,3.00
2018-11-22T21:52:06.514Z,3.00
2018-11-22T21:54:34.711Z,2.90
2018-11-22T21:57:02.877Z,2.90
2018-11-22T21:59:31.019Z,2.90
2018-11-22T22:01:59.209Z,2.90
2018-11-22T22:04:27.356Z,2.90
2018-11-22T22:06:55.550Z,2.80
2018-11-22T22:09:23.720Z,2.80
2018-11-22T22:11:51.937Z,2.80
2018-11-22T22:14:20.098Z,2.70
2018-11-22T22:16:48.274Z,2.70
2018-11-22T22:19:16.447Z,2.70
2018-11-22T22:21:44.822Z,2.60
2018-11-22T22:24:13.035Z,2.50
2018-11-22T22:26:41.255Z,2.50
2018-11-22T22:29:09.430Z,2.40
2018-11-22T22:31:37.594Z,2.30
2018-11-22T22:34:05.902Z,2.30
2018-11-22T22:36:34.051Z,2.30
2018-11-22T22:39:02.216Z,2.30
2018-11-22T22:41:30.422Z,2.20
2018-11-22T22:43:58.609Z,2.30
2018-11-22T22:46:26.794Z,2.30
2018-11-22T22:48:54.978Z,2.30
2018-11-22T22:51:23.130Z,2.20
2018-11-22T22:53:51.358Z,2.30
2018-11-22T22:56:19.544Z,2.30
2018-11-22T22:58:47.707Z,2.30
2018-11-22T23:01:16.173Z,2.30
2018-11-22T23:03:44.331Z,2.30
2018-11-22T23:06:12.478Z,2.30
2018-11-22T23:08:40.679Z,2.40
2018-11-22T23:11:08.842Z,2.40
2018-11-22T23:13:36.982Z,2.40
2018-11-22T23:16:05.210Z,2.40
2018-11-22T23:18:33.406Z,2.40
2018-11-22T23:21:01.563Z,2.40
2018-11-22T23:23:29.736Z,2.40
2018-11-22T23:25:57.909Z,2.40
2018-11-22T23:28:26.122Z,2.30
2018-11-22T23:30:54.282Z,2.30
2018-11-22T23:33:22.444Z,2.30
2018-11-22T23:35:50.563Z,2.30
2018-11-22T23:38:18.730Z,2.20
2018-11-22T23:40:46.899Z,2.20
2018-11-22T23:43:15.087Z,2.10
2018-11-22T23:45:43.260Z,2.00
2018-11-22T23:48:11.434Z,2.00
2018-11-22T23:50:39.589Z,2.00
2018-11-22T23:53:07.754Z,2.00
2018-11-22T23:55:35.876Z,2.00
2018-11-22T23:58:04.086Z,1.90
